Time;durP1;ratioP1;P1;durP2;ratioP2;P2;SDS_P1;SDS_P2;PMS_P1;PMS_P2;Temp;Humidity;BMP_temperature;BMP_pressure;BME280_temperature;BME280_humidity;BME280_pressure;Samples;Min_cycle;Max_cycle;Signal;HPM_P1;HPM_P2
2022/06/02 00:00:45;;;;;;;1.55;1.08;;;18.20;62.30;;;;;;10417414;28;20041;-51
2022/06/02 00:06:19;;;;;;;1.63;1.00;;;18.20;62.30;;;;;;10416286;28;20359;-50
2022/06/02 00:11:55;;;;;;;2.85;1.33;;;18.20;62.30;;;;;;10417208;28;20048;-52
2022/06/02 00:17:21;;;;;;;2.08;1.35;;;18.20;62.30;;;;;;10417052;28;20029;-48
2022/06/02 00:22:45;;;;;;;2.08;1.42;;;18.10;62.30;;;;;;10409159;28;20033;-52
2022/06/02 00:28:24;;;;;;;2.63;1.17;;;18.10;62.20;;;;;;10430237;28;20051;-54
2022/06/02 00:33:58;;;;;;;1.48;1.00;;;18.10;62.20;;;;;;10415457;28;20025;-51
2022/06/02 00:38:59;;;;;;;1.88;1.25;;;18.10;62.20;;;;;;10414866;28;20036;-48
2022/06/02 00:44:09;;;;;;;1.98;1.30;;;18.10;62.20;;;;;;10414010;28;20512;-48
2022/06/02 00:49:42;;;;;;;2.13;1.30;;;18.10;62.20;;;;;;10416349;28;20041;-52
2022/06/02 01:00:45;;;;;;;1.60;1.02;;;18.10;62.20;;;;;;10427185;28;20037;-54
2022/06/02 01:06:26;;;;;;;1.52;0.98;;;18.10;62.20;;;;;;10429068;28;20421;-51
2022/06/02 01:12:17;;;;;;;2.28;1.08;;;18.00;62.10;;;;;;10404526;28;20029;-51
2022/06/02 01:18:16;;;;;;;1.42;0.80;;;18.10;62.20;;;;;;10414466;28;20347;-54
2022/06/02 01:24:02;;;;;;;1.42;1.23;;;18.10;62.10;;;;;;10407814;28;20428;-52
2022/06/02 01:29:47;;;;;;;2.17;1.13;;;18.10;62.10;;;;;;10413044;28;20433;-51
2022/06/02 01:35:19;;;;;;;1.45;0.98;;;18.00;62.70;;;;;;10414267;28;20099;-48
2022/06/02 01:40:50;;;;;;;1.83;1.20;;;18.00;62.10;;;;;;10402445;28;20059;-52
2022/06/02 01:45:57;;;;;;;1.73;1.13;;;18.00;62.10;;;;;;10413292;28;20033;-53
2022/06/02 01:51:30;;;;;;;1.70;1.17;;;18.00;62.10;;;;;;10428580;28;20053;-51
2022/06/02 01:57:01;;;;;;;1.63;1.00;;;18.00;62.10;;;;;;10413499;28;20030;-52
2022/06/02 02:02:20;;;;;;;1.77;1.30;;;18.00;62.00;;;;;;10412142;28;20037;-49
2022/06/02 02:07:47;;;;;;;1.27;1.00;;;18.00;62.00;;;;;;10413003;28;20061;-48
2022/06/02 02:13:31;;;;;;;2.65;1.00;;;18.00;62.00;;;;;;10390219;28;20065;-51
2022/06/02 02:18:53;;;;;;;1.33;0.95;;;18.00;62.00;;;;;;10427692;28;20022;-48
2022/06/02 02:24:25;;;;;;;1.27;0.73;;;18.00;62.10;;;;;;10411276;28;20041;-49
2022/06/02 02:30:05;;;;;;;1.67;1.13;;;17.90;61.90;;;;;;10428105;28;20044;-47
2022/06/02 02:35:10;;;;;;;2.40;1.30;;;17.90;61.90;;;;;;10410741;28;20180;-52
2022/06/02 02:40:43;;;;;;;1.50;1.40;;;17.90;61.90;;;;;;10412404;28;20034;-52
2022/06/02 02:45:57;;;;;;;1.42;1.15;;;17.90;61.90;;;;;;10412783;28;20509;-50
2022/06/02 02:51:07;;;;;;;1.48;1.08;;;17.90;61.90;;;;;;10412129;28;20072;-52
2022/06/02 02:56:20;;;;;;;1.77;1.08;;;17.90;61.90;;;;;;10411980;28;20094;-54
2022/06/02 03:02:00;;;;;;;1.73;1.20;;;17.90;61.80;;;;;;10419957;28;20116;-52
2022/06/02 03:07:01;;;;;;;2.22;1.20;;;17.90;61.80;;;;;;10431897;28;20029;-49
2022/06/02 03:12:04;;;;;;;1.52;1.20;;;17.90;61.80;;;;;;10430071;28;20030;-54
2022/06/02 03:17:43;;;;;;;1.50;1.20;;;17.90;61.80;;;;;;10415967;28;20033;-52
2022/06/02 03:23:45;;;;;;;1.77;1.15;;;17.90;61.80;;;;;;10357433;28;20045;-48
2022/06/02 03:29:07;;;;;;;1.95;1.40;;;17.90;61.70;;;;;;10416862;28;20036;-50
2022/06/02 03:34:50;;;;;;;1.67;1.20;;;17.80;61.70;;;;;;10418510;28;20398;-48
2022/06/02 03:40:33;;;;;;;1.15;0.93;;;17.90;61.70;;;;;;10418296;28;20034;-52
2022/06/02 03:46:01;;;;;;;2.55;1.10;;;17.90;61.70;;;;;;10391284;28;20165;-51
2022/06/02 03:51:17;;;;;;;1.83;1.15;;;17.80;61.60;;;;;;10417869;28;20046;-53
2022/06/02 03:57:08;;;;;;;1.65;1.10;;;17.80;61.60;;;;;;10433283;28;20045;-53
2022/06/02 04:02:21;;;;;;;;;;;17.80;61.60;;;;;;10429984;28;20037;-49
2022/06/02 04:07:49;;;;;;;1.60;1.05;;;17.80;61.40;;;;;;10417652;28;19912;-49
2022/06/02 04:13:38;;;;;;;1.33;1.13;;;17.80;61.60;;;;;;10406374;28;20489;-49
2022/06/02 04:25:03;;;;;;;1.65;1.00;;;17.80;61.60;;;;;;10413874;28;20449;-52
2022/06/02 04:30:21;;;;;;;1.67;1.20;;;17.70;61.60;;;;;;10414781;28;20029;-54
2022/06/02 04:36:00;;;;;;;2.65;1.30;;;17.80;61.60;;;;;;10413885;28;20056;-53
2022/06/02 04:41:31;;;;;;;2.33;1.35;;;17.80;61.60;;;;;;10429718;28;20176;-49
2022/06/02 04:46:47;;;;;;;1.48;0.90;;;17.70;61.60;;;;;;10416008;28;20048;-48
2022/06/02 04:52:20;;;;;;;1.90;1.35;;;17.70;61.60;;;;;;10413035;28;20037;-48
2022/06/02 04:58:00;;;;;;;4.82;1.50;;;17.80;61.50;;;;;;10411874;28;20398;-48
2022/06/02 05:03:18;;;;;;;3.33;1.50;;;17.80;62.30;;;;;;10429501;28;20029;-52
2022/06/02 05:08:53;;;;;;;2.08;1.40;;;17.90;62.20;;;;;;10414491;28;20029;-50
2022/06/02 05:14:23;;;;;;;4.55;1.90;;;17.90;63.30;;;;;;10428582;28;20053;-50
2022/06/02 05:20:01;;;;;;;3.35;2.10;;;17.80;63.00;;;;;;10415734;28;20582;-49
2022/06/02 05:25:35;;;;;;;8.20;1.85;;;17.90;63.80;;;;;;10411064;28;20171;-48
2022/06/02 05:31:10;;;;;;;4.90;2.05;;;18.00;64.10;;;;;;10414237;28;20033;-47
2022/06/02 05:36:38;;;;;;;20.90;3.78;;;17.90;63.80;;;;;;10413301;28;20045;-46
2022/06/02 05:41:58;;;;;;;19.60;3.60;;;18.00;64.10;;;;;;10405699;28;20060;-47
2022/06/02 05:47:09;;;;;;;23.05;3.97;;;17.90;63.80;;;;;;10401234;28;20043;-50
2022/06/02 05:52:47;;;;;;;17.20;3.70;;;17.80;64.40;;;;;;10413051;28;20025;-51
2022/06/02 05:58:01;;;;;;;20.42;3.45;;;17.80;64.10;;;;;;10412282;28;20120;-47
2022/06/02 06:03:16;;;;;;;22.88;5.13;;;17.90;64.40;;;;;;10411951;28;20051;-49
2022/06/02 06:08:31;;;;;;;36.70;6.78;;;17.90;64.90;;;;;;10411134;28;20029;-48
2022/06/02 06:14:03;;;;;;;20.83;4.75;;;17.80;64.00;;;;;;10404900;28;20033;-48
2022/06/02 06:19:35;;;;;;;24.65;5.32;;;17.80;63.50;;;;;;10413034;28;20465;-47
2022/06/02 06:25:07;;;;;;;15.05;4.30;;;17.80;63.30;;;;;;10412566;28;20033;-49
2022/06/02 06:30:42;;;;;;;14.73;4.43;;;17.80;63.50;;;;;;10412399;28;20037;-47
2022/06/02 06:36:25;;;;;;;14.02;4.40;;;17.80;63.80;;;;;;10417234;28;20049;-47
2022/06/02 06:41:50;;;;;;;18.95;4.32;;;17.80;63.70;;;;;;10410950;28;20061;-47
2022/06/02 06:47:19;;;;;;;15.15;3.55;;;17.80;65.10;;;;;;10419186;28;20040;-48
2022/06/02 06:53:09;;;;;;;12.82;4.57;;;17.80;64.40;;;;;;10415087;28;20026;-50
2022/06/02 06:58:53;;;;;;;13.68;3.30;;;17.80;64.20;;;;;;10398761;28;20044;-47
2022/06/02 07:04:39;;;;;;;7.90;3.10;;;17.80;63.80;;;;;;10420153;28;20072;-49
2022/06/02 07:10:27;;;;;;;13.38;3.50;;;17.90;63.90;;;;;;10418479;28;20487;-47
2022/06/02 07:16:09;;;;;;;9.50;3.45;;;17.90;63.90;;;;;;10414723;28;20045;-49
2022/06/02 07:21:48;;;;;;;12.02;3.40;;;17.90;63.90;;;;;;10415575;28;20037;-50
2022/06/02 07:27:19;;;;;;;7.70;3.83;;;17.90;63.50;;;;;;10407299;28;20037;-49
2022/06/02 07:33:05;;;;;;;;;;;17.90;63.30;;;;;;10415224;28;20040;-52
2022/06/02 07:38:33;;;;;;;8.35;2.88;;;17.90;63.10;;;;;;10335375;28;19925;-48
2022/06/02 07:44:24;;;;;;;8.35;3.50;;;17.90;63.10;;;;;;10334758;28;20538;-50
2022/06/02 07:49:42;;;;;;;5.15;2.90;;;17.80;62.90;;;;;;10334892;28;20038;-48
2022/06/02 07:54:53;;;;;;;3.28;2.38;;;17.80;63.20;;;;;;10336293;28;20065;-47
2022/06/02 08:00:04;;;;;;;4.55;3.03;;;17.80;63.00;;;;;;10334881;28;20030;-45
2022/06/02 08:05:22;;;;;;;7.13;2.83;;;17.70;62.60;;;;;;10335762;28;20041;-47
2022/06/02 08:10:56;;;;;;;7.45;2.45;;;17.80;62.80;;;;;;10350388;28;20031;-50
2022/06/02 08:16:41;;;;;;;4.80;2.22;;;17.80;62.80;;;;;;10334052;28;20038;-48
2022/06/02 08:21:50;;;;;;;4.25;1.95;;;17.90;62.90;;;;;;10335506;28;20030;-50
2022/06/02 08:27:17;;;;;;;;;;;17.90;62.90;;;;;;10333524;28;20038;-48
2022/06/02 08:32:54;;;;;;;4.90;2.20;;;17.90;62.90;;;;;;10334286;28;20409;-51
2022/06/02 08:38:41;;;;;;;4.18;2.05;;;17.90;63.10;;;;;;10406121;28;20053;-46
2022/06/02 08:44:03;;;;;;;2.40;1.70;;;17.90;63.00;;;;;;10415281;28;20037;-46
2022/06/02 08:49:54;;;;;;;5.65;1.70;;;18.00;63.10;;;;;;10415543;28;20029;-47
2022/06/02 08:55:31;;;;;;;3.25;2.35;;;18.00;63.10;;;;;;10412679;28;20053;-49
2022/06/02 09:01:01;;;;;;;2.97;1.90;;;18.00;63.30;;;;;;10415232;28;20025;-48
2022/06/02 09:06:46;;;;;;;2.17;1.60;;;18.00;63.30;;;;;;10413676;28;20029;-49
2022/06/02 09:12:18;;;;;;;3.63;1.20;;;17.90;63.40;;;;;;10393880;28;20273;-47
2022/06/02 09:17:39;;;;;;;2.55;1.60;;;17.90;63.50;;;;;;10412015;28;20041;-46
2022/06/02 09:23:03;;;;;;;4.45;1.80;;;17.90;63.50;;;;;;10401784;28;20034;-48
2022/06/02 09:28:24;;;;;;;2.85;1.65;;;17.90;63.60;;;;;;10429316;28;20041;-46
2022/06/02 09:34:07;;;;;;;2.60;1.63;;;17.90;63.60;;;;;;10413934;28;20470;-49
2022/06/02 09:39:51;;;;;;;4.13;1.30;;;17.80;63.60;;;;;;10413312;28;20124;-49
2022/06/02 09:45:38;;;;;;;2.13;1.65;;;17.80;63.60;;;;;;10413698;28;20496;-46
2022/06/02 09:50:59;;;;;;;3.53;1.73;;;17.80;63.70;;;;;;10427180;28;20498;-48
2022/06/02 09:56:30;;;;;;;2.42;1.40;;;17.90;63.60;;;;;;10413052;28;20029;-46
2022/06/02 10:02:06;;;;;;;1.88;1.40;;;17.90;63.70;;;;;;10428304;28;20033;-47
2022/06/02 10:07:19;;;;;;;2.63;1.35;;;18.00;63.80;;;;;;10412412;28;20036;-46
2022/06/02 10:12:56;;;;;;;1.95;1.20;;;18.00;63.80;;;;;;10427709;28;20036;-48
2022/06/02 10:18:23;;;;;;;1.85;1.30;;;18.00;63.70;;;;;;10412632;28;20402;-50
2022/06/02 10:23:45;;;;;;;1.52;1.30;;;18.00;63.70;;;;;;10425872;28;20045;-48
2022/06/02 10:29:28;;;;;;;2.05;1.50;;;18.00;63.90;;;;;;10412304;28;20512;-48
2022/06/02 10:35:32;;;;;;;1.77;1.20;;;18.00;63.90;;;;;;10411879;28;20421;-49
2022/06/02 10:40:56;;;;;;;2.80;1.90;;;18.00;63.80;;;;;;10421964;28;20441;-48
2022/06/02 10:46:28;;;;;;;2.13;1.42;;;18.10;63.80;;;;;;10411773;28;20033;-46
2022/06/02 10:51:53;;;;;;;2.10;1.42;;;18.10;63.70;;;;;;10412206;28;20397;-47
2022/06/02 10:57:18;;;;;;;2.42;1.30;;;18.10;63.60;;;;;;10411489;28;20473;-47
2022/06/02 11:03:16;;;;;;;2.63;1.55;;;18.10;63.70;;;;;;10410636;28;20040;-51
2022/06/02 11:08:41;;;;;;;4.47;1.40;;;18.20;63.60;;;;;;10395941;28;20041;-47
2022/06/02 11:14:19;;;;;;;1.88;1.20;;;18.20;63.20;;;;;;10397959;28;20084;-50
2022/06/02 11:20:09;;;;;;;3.05;1.45;;;18.30;63.20;;;;;;10393768;28;20084;-47
2022/06/02 11:25:40;;;;;;;2.17;0.97;;;18.30;63.20;;;;;;10431576;28;20037;-47
2022/06/02 11:30:58;;;;;;;;;;;18.30;63.20;;;;;;10434192;28;20056;-51
2022/06/02 11:36:26;;;;;;;1.70;1.30;;;18.40;63.20;;;;;;10418002;28;20325;-47
2022/06/02 11:41:52;;;;;;;1.17;0.90;;;18.40;63.30;;;;;;10417915;28;20033;-49
2022/06/02 11:47:12;;;;;;;2.30;1.30;;;18.40;63.20;;;;;;10416342;28;20045;-47
2022/06/02 11:52:40;;;;;;;2.20;0.95;;;18.40;63.30;;;;;;10417474;28;20095;-48
2022/06/02 11:58:41;;;;;;;1.50;0.88;;;18.40;63.20;;;;;;10431457;28;20048;-48
2022/06/02 12:04:14;;;;;;;1.45;1.02;;;18.40;63.30;;;;;;10413835;28;20048;-46
2022/06/02 12:09:51;;;;;;;2.03;1.02;;;18.30;63.50;;;;;;10432027;28;20532;-48
2022/06/02 12:15:25;;;;;;;1.55;1.00;;;18.30;63.60;;;;;;10407329;28;20042;-47
2022/06/02 12:21:13;;;;;;;1.88;1.23;;;18.40;63.50;;;;;;10417688;28;20022;-47
2022/06/02 12:27:06;;;;;;;1.88;0.90;;;18.40;63.50;;;;;;10406560;28;20048;-51
2022/06/02 12:32:56;;;;;;;1.65;0.98;;;18.40;63.40;;;;;;10404049;28;20041;-47
2022/06/02 12:38:12;;;;;;;1.67;1.05;;;18.40;63.60;;;;;;10414455;28;20088;-46
2022/06/02 12:43:25;;;;;;;1.20;1.08;;;18.30;63.70;;;;;;10415798;28;20029;-46
2022/06/02 12:48:56;;;;;;;2.28;1.00;;;18.30;63.90;;;;;;10414368;28;20029;-49
2022/06/02 12:54:47;;;;;;;1.42;1.33;;;18.30;63.90;;;;;;10416196;28;20036;-47
2022/06/02 13:00:06;;;;;;;;;;;18.30;63.80;;;;;;10415224;28;20108;-47
2022/06/02 13:05:37;;;;;;;1.30;0.95;;;18.40;63.80;;;;;;10414709;28;19915;-48
2022/06/02 13:11:05;;;;;;;1.42;1.10;;;18.40;63.80;;;;;;10414251;28;20032;-50
2022/06/02 13:16:30;;;;;;;1.60;1.15;;;18.40;63.70;;;;;;10401889;28;20445;-48
2022/06/02 13:21:37;;;;;;;1.20;1.10;;;18.50;63.60;;;;;;10415381;28;20033;-46
2022/06/02 13:27:33;;;;;;;1.42;1.00;;;18.50;63.50;;;;;;10413801;28;20033;-46
2022/06/02 13:32:48;;;;;;;1.10;0.85;;;18.50;63.60;;;;;;10413469;28;20037;-48
2022/06/02 13:38:30;;;;;;;1.13;0.80;;;18.50;63.80;;;;;;10413393;28;20107;-47
2022/06/02 13:44:27;;;;;;;1.48;0.93;;;18.40;64.00;;;;;;10412920;28;20405;-47
2022/06/02 13:50:24;;;;;;;0.90;0.75;;;18.40;64.00;;;;;;10424942;28;20045;-47
2022/06/02 14:01:40;;;;;;;1.38;1.05;;;18.40;64.10;;;;;;10425470;28;20026;-47
2022/06/02 14:07:03;;;;;;;1.10;1.00;;;18.40;63.90;;;;;;10427078;28;20045;-47
2022/06/02 14:12:24;;;;;;;1.08;0.70;;;18.40;63.90;;;;;;10426477;28;20506;-46
2022/06/02 14:17:47;;;;;;;1.30;0.80;;;18.40;64.00;;;;;;10413748;28;20030;-47
2022/06/02 14:23:12;;;;;;;1.27;0.90;;;18.40;64.20;;;;;;10401019;28;20037;-46
2022/06/02 14:28:40;;;;;;;1.00;0.90;;;18.40;64.20;;;;;;10411919;28;20041;-47
2022/06/02 14:33:45;;;;;;;1.05;0.90;;;18.30;64.20;;;;;;10412522;28;20367;-50
2022/06/02 14:39:14;;;;;;;0.93;0.60;;;18.40;64.20;;;;;;10384630;28;20061;-49
2022/06/02 14:44:50;;;;;;;1.42;0.90;;;18.40;64.20;;;;;;10412327;28;20044;-48
2022/06/02 14:50:30;;;;;;;1.33;1.00;;;18.40;64.10;;;;;;10412494;28;20366;-47
2022/06/02 14:56:16;;;;;;;1.30;0.90;;;18.40;64.10;;;;;;10431142;28;20031;-48
2022/06/02 15:01:39;;;;;;;4.53;1.05;;;18.30;64.10;;;;;;10403968;28;20525;-46
2022/06/02 15:07:42;;;;;;;1.20;0.80;;;18.40;64.10;;;;;;10419025;28;20061;-47
2022/06/02 15:13:06;;;;;;;1.00;0.70;;;18.30;64.10;;;;;;10333582;28;20108;-46
2022/06/02 15:18:56;;;;;;;1.27;1.00;;;18.30;64.10;;;;;;10406628;28;20041;-48
2022/06/02 15:24:26;;;;;;;2.15;1.20;;;18.30;64.20;;;;;;10418332;28;20036;-47
2022/06/02 15:29:27;;;;;;;;;;;18.30;64.20;;;;;;10409676;28;20029;-48
2022/06/02 15:35:25;;;;;;;1.20;0.90;;;18.30;64.10;;;;;;10418042;28;20000;-46
2022/06/02 15:41:05;;;;;;;1.20;0.90;;;18.30;64.20;;;;;;10381192;28;20037;-46
2022/06/02 15:46:36;;;;;;;1.50;1.00;;;18.40;64.10;;;;;;10418102;28;20040;-50
2022/06/02 15:52:19;;;;;;;1.30;0.95;;;18.30;64.10;;;;;;10416409;28;20075;-47
2022/06/02 15:57:41;;;;;;;0.80;0.65;;;18.40;64.80;;;;;;10417580;28;20033;-51
2022/06/02 16:03:10;;;;;;;1.33;0.80;;;18.40;64.20;;;;;;10417879;28;20056;-46
2022/06/02 16:11:14;;;;;;;1.27;0.75;;;18.30;64.10;;;;;;10417351;28;20053;-46
2022/06/02 16:14:50;;;;;;;1.10;0.88;;;18.30;64.10;;;;;;10403281;28;20091;-50
2022/06/02 16:20:12;;;;;;;1.30;0.88;;;18.40;64.10;;;;;;10417147;28;20033;-46
2022/06/02 16:25:44;;;;;;;1.20;1.10;;;18.40;64.10;;;;;;10416783;28;20029;-48
2022/06/02 16:31:25;;;;;;;1.48;0.80;;;18.40;64.10;;;;;;10416225;28;20060;-50
2022/06/02 16:36:48;;;;;;;3.72;1.13;;;18.40;64.10;;;;;;10415522;28;20054;-47
2022/06/02 16:42:15;;;;;;;9.95;1.80;;;18.40;63.90;;;;;;10414882;28;20044;-45
2022/06/02 16:47:41;;;;;;;9.23;1.75;;;18.60;64.40;;;;;;10415476;28;20057;-45
2022/06/02 16:53:03;;;;;;;6.13;1.52;;;18.70;64.90;;;;;;10413838;28;20432;-46
2022/06/02 16:58:12;;;;;;;9.80;2.17;;;18.70;64.40;;;;;;10414973;28;20045;-46
2022/06/02 17:03:19;;;;;;;;;;;18.70;65.60;;;;;;10415468;28;20044;-47
2022/06/02 17:08:30;;;;;;;12.82;2.13;;;18.70;65.30;;;;;;10413328;28;19956;-48
2022/06/02 17:13:34;;;;;;;6.85;2.20;;;18.70;65.50;;;;;;10402995;28;20103;-47
2022/06/02 17:19:15;;;;;;;10.80;1.80;;;18.70;65.40;;;;;;10401039;28;20369;-53
2022/06/02 17:24:28;;;;;;;11.80;2.13;;;18.60;65.30;;;;;;10413309;28;20465;-52
2022/06/02 17:29:41;;;;;;;10.57;2.15;;;18.60;65.10;;;;;;10413401;28;20033;-49
2022/06/02 17:35:17;;;;;;;7.22;1.90;;;18.60;65.50;;;;;;10421794;28;20566;-49
2022/06/02 17:40:31;;;;;;;10.75;2.05;;;18.70;65.20;;;;;;10403334;28;20091;-49
2022/06/02 17:45:43;;;;;;;11.18;2.65;;;18.70;64.90;;;;;;10405311;28;20431;-51
2022/06/02 17:51:29;;;;;;;7.03;1.67;;;18.70;64.70;;;;;;10412676;28;20432;-53
2022/06/02 17:57:23;;;;;;;14.45;2.60;;;18.70;64.90;;;;;;10411294;28;20038;-51
2022/06/02 18:03:09;;;;;;;11.18;2.42;;;18.70;64.60;;;;;;10406970;28;20067;-50
2022/06/02 18:09:14;;;;;;;7.57;2.90;;;18.60;64.20;;;;;;10395601;28;20512;-52
2022/06/02 18:14:41;;;;;;;3.70;3.40;;;18.60;62.70;;;;;;10353298;28;20042;-50
2022/06/02 18:20:27;;;;;;;7.18;3.15;;;18.70;61.70;;;;;;10408144;28;20064;-48
2022/06/02 18:26:06;;;;;;;3.35;2.47;;;18.80;61.60;;;;;;10420545;28;20668;-52
2022/06/02 18:31:38;;;;;;;4.97;2.37;;;18.70;61.60;;;;;;10418181;28;20029;-49
2022/06/02 18:36:59;;;;;;;4.45;2.22;;;18.60;61.30;;;;;;10420600;28;20045;-49
2022/06/02 18:42:21;;;;;;;8.05;2.80;;;18.60;61.60;;;;;;10420493;28;20060;-48
2022/06/02 18:47:55;;;;;;;5.18;2.15;;;18.60;61.30;;;;;;10428759;28;20482;-48
2022/06/02 18:53:09;;;;;;;4.22;1.77;;;18.60;61.70;;;;;;10419540;28;20037;-49
2022/06/02 18:58:58;;;;;;;3.95;1.73;;;18.60;61.70;;;;;;10418939;28;20398;-51
2022/06/02 19:04:52;;;;;;;3.20;1.65;;;18.60;61.60;;;;;;10418529;28;20026;-49
2022/06/02 19:15:59;;;;;;;2.67;1.33;;;18.50;60.40;;;;;;10405843;28;20034;-47
2022/06/02 19:21:18;;;;;;;1.70;1.33;;;18.60;60.10;;;;;;10419405;28;20191;-48
2022/06/02 19:26:46;;;;;;;2.65;1.17;;;18.60;60.10;;;;;;10417531;28;20044;-46
2022/06/02 19:32:30;;;;;;;1.60;0.93;;;18.60;60.70;;;;;;10433595;28;20029;-48
2022/06/02 19:37:44;;;;;;;1.90;1.13;;;18.60;60.00;;;;;;10416872;28;20113;-48
2022/06/02 19:43:12;;;;;;;2.78;1.55;;;18.60;59.40;;;;;;10418150;28;20028;-50
2022/06/02 19:48:43;;;;;;;3.40;1.40;;;18.60;59.20;;;;;;10417173;28;20041;-48
2022/06/02 19:53:55;;;;;;;1.92;1.00;;;18.60;58.30;;;;;;10418177;28;20029;-48
2022/06/02 19:59:11;;;;;;;2.67;1.25;;;18.60;57.20;;;;;;10401880;28;20025;-51
2022/06/02 20:04:32;;;;;;;3.58;0.98;;;18.60;58.50;;;;;;10415980;28;20398;-51
2022/06/02 20:09:59;;;;;;;2.50;0.98;;;18.60;58.70;;;;;;10432083;28;20102;-48
2022/06/02 20:15:29;;;;;;;2.70;0.90;;;18.60;58.60;;;;;;10418820;28;20378;-50
2022/06/02 20:20:46;;;;;;;2.20;1.23;;;18.60;58.50;;;;;;10428531;28;20116;-47
2022/06/02 20:25:58;;;;;;;2.92;1.50;;;18.60;59.20;;;;;;10414093;28;20029;-49
2022/06/02 20:31:15;;;;;;;2.25;1.15;;;18.60;59.10;;;;;;10413713;28;20044;-47
2022/06/02 20:36:47;;;;;;;2.42;1.27;;;18.60;59.20;;;;;;10429920;28;20053;-48
2022/06/02 20:42:08;;;;;;;1.70;1.35;;;18.60;59.20;;;;;;10414165;28;20095;-49
2022/06/02 20:47:47;;;;;;;1.20;0.90;;;18.60;59.50;;;;;;10414076;28;20049;-48
2022/06/02 20:52:58;;;;;;;2.95;1.23;;;18.60;59.40;;;;;;10413806;28;20037;-48
2022/06/02 20:58:11;;;;;;;4.25;1.10;;;18.50;59.60;;;;;;10414341;28;20021;-49
2022/06/02 21:03:34;;;;;;;3.13;1.23;;;18.60;59.80;;;;;;10402569;28;20041;-47
2022/06/02 21:09:19;;;;;;;1.80;0.90;;;18.60;59.80;;;;;;10414122;28;20022;-48
2022/06/02 21:14:24;;;;;;;1.52;1.10;;;18.60;59.80;;;;;;10394593;28;20045;-50
2022/06/02 21:19:49;;;;;;;1.83;0.90;;;18.60;60.10;;;;;;10407389;28;20425;-47
2022/06/02 21:25:08;;;;;;;2.08;0.90;;;18.60;60.00;;;;;;10428904;28;20045;-49
2022/06/02 21:30:24;;;;;;;2.38;1.05;;;18.50;59.90;;;;;;10409429;28;20486;-51
2022/06/02 21:35:57;;;;;;;1.58;1.13;;;18.60;60.00;;;;;;10413536;28;20065;-51
2022/06/02 21:41:12;;;;;;;1.05;0.95;;;18.50;60.00;;;;;;10383081;28;20029;-47
2022/06/02 21:46:28;;;;;;;1.50;1.02;;;18.50;60.00;;;;;;10413298;28;20444;-46
2022/06/02 21:51:47;;;;;;;2.55;1.08;;;18.50;60.00;;;;;;10428458;28;20087;-46
2022/06/02 21:57:36;;;;;;;1.52;1.10;;;18.50;60.00;;;;;;10396147;28;20053;-47
2022/06/02 22:03:35;;;;;;;2.47;1.02;;;18.60;60.00;;;;;;10412293;28;20022;-47
2022/06/02 22:09:01;;;;;;;1.30;1.00;;;18.50;60.10;;;;;;10403742;28;20112;-48
2022/06/02 22:14:31;;;;;;;1.65;0.90;;;18.60;60.20;;;;;;10398584;28;20066;-50
2022/06/02 22:19:53;;;;;;;2.50;0.80;;;18.60;60.20;;;;;;10413562;28;20345;-49
2022/06/02 22:25:13;;;;;;;0.98;0.82;;;18.50;60.20;;;;;;10415672;28;20077;-49
2022/06/02 22:30:39;;;;;;;1.83;1.10;;;18.50;60.40;;;;;;10424155;28;20045;-51
2022/06/02 22:36:02;;;;;;;2.40;1.13;;;18.60;60.40;;;;;;10412141;28;20065;-47
2022/06/02 22:41:41;;;;;;;1.65;0.93;;;18.60;60.40;;;;;;10404989;28;20060;-46
2022/06/02 22:47:18;;;;;;;1.58;1.33;;;18.60;60.40;;;;;;10425121;28;20074;-48
2022/06/02 22:53:01;;;;;;;1.77;1.20;;;18.60;60.40;;;;;;10412141;28;20124;-48
2022/06/02 22:58:20;;;;;;;1.45;1.00;;;18.50;60.40;;;;;;10424953;28;20366;-48
2022/06/02 23:03:41;;;;;;;1.53;0.90;;;18.60;60.40;;;;;;10410787;28;20091;-47
2022/06/02 23:09:22;;;;;;;1.33;0.98;;;18.60;60.40;;;;;;10411878;28;20037;-49
2022/06/02 23:15:14;;;;;;;1.85;1.40;;;18.50;60.40;;;;;;10399950;28;20120;-50
2022/06/02 23:20:59;;;;;;;2.00;0.93;;;18.50;60.40;;;;;;10426711;28;20428;-47
2022/06/02 23:26:11;;;;;;;1.65;1.20;;;18.50;60.40;;;;;;10432944;28;20034;-48
2022/06/02 23:31:29;;;;;;;1.92;1.08;;;18.50;60.40;;;;;;10418847;28;20044;-46
2022/06/02 23:37:11;;;;;;;1.25;1.15;;;18.50;60.50;;;;;;10418373;28;20096;-52
2022/06/02 23:48:44;;;;;;;1.65;1.08;;;18.50;60.50;;;;;;10418767;28;20482;-50
2022/06/02 23:54:02;;;;;;;1.70;1.10;;;18.50;60.50;;;;;;10417991;28;20097;-47
2022/06/02 23:59:24;;;;;;;1.50;1.20;;;18.50;60.60;;;;;;10417575;28;20350;-47
